Time;durP1;ratioP1;P1;durP2;ratioP2;P2;SDS_P1;SDS_P2;PMS_P1;PMS_P2;Temp;Humidity;BMP_temperature;BMP_pressure;BME280_temperature;BME280_humidity;BME280_pressure;Samples;Min_cycle;Max_cycle;Signal;HPM_P1;HPM_P2
2023/08/08 00:01:03;;;;;;;7.20;2.28;;;15.20;99.90;;;;;;4990988;28;20176;-63
2023/08/08 00:03:29;;;;;;;8.13;2.00;;;15.50;99.90;;;;;;4991871;28;20038;-64
2023/08/08 00:05:55;;;;;;;8.02;2.38;;;15.10;99.90;;;;;;4991320;28;20045;-64
2023/08/08 00:08:20;;;;;;;4.50;1.58;;;15.40;99.90;;;;;;4990014;28;20435;-63
2023/08/08 00:10:46;;;;;;;7.95;2.30;;;15.10;99.90;;;;;;4989944;28;20050;-63
2023/08/08 00:13:11;;;;;;;6.85;1.83;;;15.30;99.90;;;;;;4991373;28;20050;-64
2023/08/08 00:15:37;;;;;;;7.55;2.30;;;16.20;99.90;;;;;;4991180;28;20413;-63
2023/08/08 00:18:03;;;;;;;7.32;1.88;;;15.10;99.90;;;;;;4989693;28;20121;-63
2023/08/08 00:20:29;;;;;;;6.47;1.83;;;15.00;99.90;;;;;;4986889;28;20053;-64
2023/08/08 00:22:54;;;;;;;9.35;2.50;;;15.00;99.90;;;;;;4984143;28;20042;-64
2023/08/08 00:25:20;;;;;;;5.97;1.80;;;15.30;99.90;;;;;;4987049;28;20035;-64
2023/08/08 00:27:46;;;;;;;6.60;2.00;;;15.10;99.90;;;;;;4979747;28;20038;-63
2023/08/08 00:30:14;;;;;;;5.00;1.90;;;15.80;99.90;;;;;;4988501;28;20038;-64
2023/08/08 00:32:40;;;;;;;7.15;2.28;;;15.80;99.90;;;;;;4987896;28;20041;-63
2023/08/08 00:35:06;;;;;;;7.07;1.92;;;15.50;99.90;;;;;;4983051;28;20121;-63
2023/08/08 00:37:32;;;;;;;6.00;1.80;;;14.90;99.90;;;;;;4983104;28;20129;-63
2023/08/08 00:39:57;;;;;;;6.38;2.10;;;15.30;99.90;;;;;;4984766;28;20044;-63
2023/08/08 00:42:23;;;;;;;7.70;1.98;;;15.80;99.90;;;;;;4989889;28;20040;-63
2023/08/08 00:44:49;;;;;;;7.68;2.28;;;15.00;99.90;;;;;;4990751;28;20133;-64
2023/08/08 00:47:14;;;;;;;7.72;1.80;;;15.00;99.90;;;;;;4989369;28;20488;-64
2023/08/08 00:49:40;;;;;;;7.70;2.35;;;15.40;99.90;;;;;;4985070;28;20070;-64
2023/08/08 00:52:07;;;;;;;6.55;1.80;;;;;;;;;;4982909;28;20041;-63
2023/08/08 00:54:32;;;;;;;7.93;1.92;;;15.00;99.90;;;;;;4983045;28;20057;-63
2023/08/08 00:56:58;;;;;;;6.00;2.00;;;15.30;99.90;;;;;;4989009;28;20496;-63
2023/08/08 00:59:24;;;;;;;7.35;2.20;;;15.40;99.90;;;;;;4983415;28;20045;-63
2023/08/08 01:01:50;;;;;;;7.68;2.50;;;15.30;99.90;;;;;;4990270;28;20038;-63
2023/08/08 01:04:17;;;;;;;10.82;2.03;;;15.20;99.90;;;;;;4985276;28;20042;-64
2023/08/08 01:07:04;;;;;;;6.15;2.55;;;14.70;99.90;;;;;;4990676;28;20082;-63
2023/08/08 01:09:51;;;;;;;6.68;2.00;;;15.40;99.90;;;;;;4989132;28;20492;-64
2023/08/08 01:12:17;;;;;;;5.65;1.90;;;14.80;99.90;;;;;;4990251;28;20046;-63
2023/08/08 01:14:43;;;;;;;8.60;2.25;;;15.80;99.90;;;;;;4990405;28;20042;-64
2023/08/08 01:17:11;;;;;;;10.40;2.25;;;14.90;99.90;;;;;;4990210;28;20041;-63
2023/08/08 01:19:37;;;;;;;6.18;2.58;;;15.10;99.90;;;;;;4988993;28;20441;-64
2023/08/08 01:22:07;;;;;;;7.72;1.70;;;15.20;99.90;;;;;;4988131;28;20081;-64
2023/08/08 01:24:36;;;;;;;9.75;2.92;;;14.60;99.90;;;;;;4986915;28;20120;-65
2023/08/08 01:27:03;;;;;;;6.82;1.70;;;15.40;99.90;;;;;;4982192;28;20042;-64
2023/08/08 01:29:29;;;;;;;5.65;2.13;;;15.10;99.90;;;;;;4970511;28;20050;-63
2023/08/08 01:31:55;;;;;;;5.63;1.60;;;15.00;99.90;;;;;;4987373;28;20101;-64
2023/08/08 01:34:21;;;;;;;9.02;2.05;;;15.00;99.90;;;;;;5002434;28;20149;-64
2023/08/08 01:37:10;;;;;;;7.82;1.90;;;15.00;99.90;;;;;;4981693;28;20277;-64
2023/08/08 01:39:40;;;;;;;7.65;1.85;;;14.60;99.90;;;;;;4982292;28;20373;-64
2023/08/08 01:42:07;;;;;;;9.60;2.33;;;14.60;99.90;;;;;;4978998;28;20109;-64
2023/08/08 01:44:34;;;;;;;6.40;1.65;;;15.10;99.90;;;;;;4989034;28;20046;-64
2023/08/08 01:47:00;;;;;;;8.70;2.00;;;15.80;99.90;;;;;;4986534;28;20711;-64
2023/08/08 01:49:26;;;;;;;8.07;1.85;;;14.80;99.90;;;;;;4981541;28;20043;-64
2023/08/08 01:51:52;;;;;;;7.90;2.05;;;14.60;99.90;;;;;;4978953;28;20247;-64
2023/08/08 01:54:18;;;;;;;8.88;2.08;;;15.10;99.90;;;;;;4987101;28;20039;-64
2023/08/08 01:56:44;;;;;;;6.75;2.38;;;15.90;99.90;;;;;;4984209;28;20276;-64
2023/08/08 01:59:10;;;;;;;5.57;1.48;;;14.60;99.90;;;;;;4966359;28;20125;-63
2023/08/08 02:01:36;;;;;;;7.30;2.00;;;14.80;99.90;;;;;;4977252;28;20525;-64
2023/08/08 02:04:02;;;;;;;8.90;1.88;;;15.00;99.90;;;;;;4983696;28;20049;-64
2023/08/08 02:06:27;;;;;;;7.05;2.20;;;14.90;99.90;;;;;;4984085;28;20042;-64
2023/08/08 02:08:53;;;;;;;5.30;1.88;;;14.60;99.90;;;;;;4982509;28;20057;-64
2023/08/08 02:11:19;;;;;;;6.35;1.73;;;15.10;99.90;;;;;;4982740;28;20049;-64
2023/08/08 02:13:45;;;;;;;5.32;1.98;;;15.00;99.90;;;;;;4986171;28;20511;-64
2023/08/08 02:16:10;;;;;;;15.43;2.15;;;15.30;99.90;;;;;;4982840;28;20042;-64
2023/08/08 02:18:40;;;;;;;8.05;2.13;;;15.50;99.90;;;;;;4985712;28;20030;-64
2023/08/08 02:21:06;;;;;;;6.20;2.28;;;15.00;99.90;;;;;;4987867;28;20472;-64
2023/08/08 02:23:32;;;;;;;7.65;2.00;;;15.20;99.90;;;;;;4982099;28;20078;-64
2023/08/08 02:25:58;;;;;;;7.30;2.05;;;;;;;;;;4983707;28;20536;-65
2023/08/08 02:28:23;;;;;;;7.20;2.40;;;15.00;99.90;;;;;;4984759;28;20042;-66
2023/08/08 02:30:49;;;;;;;8.07;2.28;;;14.80;1.00;;;;;;4982376;28;20050;-65
2023/08/08 02:33:15;;;;;;;5.75;2.05;;;14.80;1.00;;;;;;4983892;28;20042;-64
2023/08/08 02:35:40;;;;;;;5.53;2.15;;;14.70;1.00;;;;;;4985561;28;20038;-65
2023/08/08 02:38:06;;;;;;;8.23;2.30;;;14.00;1.00;;;;;;4979060;28;20046;-65
2023/08/08 02:40:33;;;;;;;8.35;2.10;;;13.40;1.00;;;;;;4985576;28;20101;-65
2023/08/08 02:42:59;;;;;;;8.20;2.13;;;13.60;1.00;;;;;;4981947;28;20048;-65
2023/08/08 02:45:25;;;;;;;6.15;1.98;;;;;;;;;;4989356;28;20189;-65
2023/08/08 02:47:51;;;;;;;6.35;1.52;;;13.10;18.10;;;;;;4986251;28;20104;-65
2023/08/08 02:50:17;;;;;;;7.13;1.85;;;13.70;40.80;;;;;;4976160;28;20035;-65
2023/08/08 02:52:42;;;;;;;6.10;2.22;;;13.70;55.30;;;;;;4981331;28;20108;-65
2023/08/08 02:55:08;;;;;;;8.43;2.08;;;13.10;49.40;;;;;;4988395;28;20464;-64
2023/08/08 02:57:34;;;;;;;6.43;1.92;;;13.40;69.50;;;;;;4992186;28;20510;-64
2023/08/08 03:00:00;;;;;;;5.22;1.92;;;14.60;84.70;;;;;;4988146;28;20035;-64
2023/08/08 03:02:25;;;;;;;9.88;2.53;;;12.80;98.40;;;;;;4991816;28;20042;-64
2023/08/08 03:04:51;;;;;;;6.55;2.08;;;13.00;99.90;;;;;;4986785;28;20054;-65
2023/08/08 03:07:17;;;;;;;9.98;2.28;;;13.40;99.90;;;;;;4992530;28;20045;-64
2023/08/08 03:09:42;;;;;;;8.18;2.55;;;13.80;99.90;;;;;;4992274;28;20045;-64
2023/08/08 03:12:08;;;;;;;7.07;2.30;;;12.60;99.90;;;;;;4990071;28;20089;-65
2023/08/08 03:14:34;;;;;;;9.88;2.42;;;12.60;99.90;;;;;;4981711;28;20031;-65
2023/08/08 03:17:00;;;;;;;8.35;2.10;;;12.80;99.90;;;;;;4992813;28;20030;-64
2023/08/08 03:19:26;;;;;;;7.03;2.22;;;12.70;99.90;;;;;;4991081;28;20045;-64
2023/08/08 03:21:52;;;;;;;9.48;2.90;;;12.90;99.90;;;;;;4990407;28;20050;-64
2023/08/08 03:24:17;;;;;;;15.75;3.05;;;12.70;99.90;;;;;;4970624;28;20069;-63
2023/08/08 03:26:43;;;;;;;10.68;3.17;;;13.20;99.90;;;;;;4989840;28;20416;-64
2023/08/08 03:29:10;;;;;;;6.50;2.70;;;12.80;99.90;;;;;;4992168;28;20145;-64
2023/08/08 03:31:36;;;;;;;6.68;2.55;;;12.50;99.90;;;;;;4992250;28;20042;-64
2023/08/08 03:34:02;;;;;;;6.53;2.15;;;13.40;99.90;;;;;;4987374;28;20034;-63
2023/08/08 03:36:28;;;;;;;5.45;2.10;;;12.70;1.00;;;;;;4990228;28;20109;-64
2023/08/08 03:38:54;;;;;;;7.05;2.25;;;13.00;1.00;;;;;;4983088;28;20034;-63
2023/08/08 03:41:20;;;;;;;6.93;2.22;;;13.30;1.00;;;;;;4986659;28;20088;-63
2023/08/08 03:43:45;;;;;;;8.73;2.13;;;12.80;1.00;;;;;;4988384;28;20046;-63
2023/08/08 03:46:11;;;;;;;10.82;2.85;;;12.90;1.00;;;;;;4981486;28;20101;-63
2023/08/08 03:48:38;;;;;;;7.00;1.98;;;13.40;1.00;;;;;;4988572;28;20046;-63
2023/08/08 03:51:04;;;;;;;6.03;2.15;;;12.70;1.00;;;;;;4990725;28;20038;-63
2023/08/08 03:53:29;;;;;;;11.95;2.78;;;13.20;1.00;;;;;;4982660;28;20049;-63
2023/08/08 03:55:55;;;;;;;5.85;2.72;;;13.10;1.00;;;;;;4987197;28;20034;-63
2023/08/08 03:58:21;;;;;;;11.40;2.15;;;12.50;15.60;;;;;;4988955;28;20717;-63
2023/08/08 04:00:47;;;;;;;5.65;1.90;;;;;;;;;;4981938;28;20197;-63
2023/08/08 04:03:17;;;;;;;5.97;1.92;;;;;;;;;;4986699;28;20070;-64
2023/08/08 04:05:49;;;;;;;6.50;2.10;;;12.70;1.00;;;;;;4985993;28;20117;-64
2023/08/08 04:08:15;;;;;;;5.90;1.90;;;12.60;1.00;;;;;;4986955;28;20042;-63
2023/08/08 04:10:41;;;;;;;8.18;2.10;;;12.60;1.00;;;;;;4982848;28;20447;-63
2023/08/08 04:13:07;;;;;;;7.70;1.90;;;12.60;1.00;;;;;;4987097;28;20038;-64
2023/08/08 04:15:32;;;;;;;5.82;2.05;;;12.80;1.00;;;;;;4988666;28;20124;-64
2023/08/08 04:17:58;;;;;;;6.72;1.63;;;12.50;1.00;;;;;;4984051;28;20038;-64
2023/08/08 04:20:24;;;;;;;8.93;2.17;;;12.80;1.00;;;;;;4991007;28;20038;-64
2023/08/08 04:22:49;;;;;;;11.13;2.50;;;12.50;1.00;;;;;;4983541;28;20693;-64
2023/08/08 04:25:15;;;;;;;5.72;1.83;;;12.30;1.00;;;;;;4985332;28;20034;-64
2023/08/08 04:27:41;;;;;;;6.60;1.60;;;12.40;1.00;;;;;;4982492;28;20042;-64
2023/08/08 04:30:07;;;;;;;6.60;1.75;;;12.70;1.00;;;;;;4981419;28;20400;-63
2023/08/08 04:32:33;;;;;;;8.75;1.85;;;12.40;1.00;;;;;;4983275;28;20034;-64
2023/08/08 04:34:59;;;;;;;5.28;1.65;;;12.70;1.00;;;;;;4990948;28;20038;-64
2023/08/08 04:37:24;;;;;;;6.70;1.50;;;12.30;1.00;;;;;;4989742;28;20492;-64
2023/08/08 04:39:50;;;;;;;11.48;2.35;;;12.60;1.00;;;;;;4990616;28;20034;-64
2023/08/08 04:42:16;;;;;;;5.47;1.85;;;12.40;1.00;;;;;;4985605;28;20042;-64
2023/08/08 04:44:41;;;;;;;7.40;1.88;;;12.80;1.00;;;;;;4988381;28;20051;-64
2023/08/08 04:47:07;;;;;;;6.30;1.70;;;13.00;1.00;;;;;;4989558;28;20031;-64
2023/08/08 04:49:33;;;;;;;8.57;2.03;;;13.20;99.90;;;;;;4990009;28;20066;-63
2023/08/08 04:51:58;;;;;;;9.52;1.70;;;13.00;99.90;;;;;;4982293;28;20041;-64
2023/08/08 04:54:25;;;;;;;9.95;2.08;;;12.60;99.90;;;;;;4978523;28;20102;-64
2023/08/08 04:56:51;;;;;;;7.78;2.08;;;13.00;1.00;;;;;;4990056;28;20046;-64
2023/08/08 04:59:16;;;;;;;6.30;1.80;;;12.70;1.00;;;;;;4990032;28;20554;-64
2023/08/08 05:01:42;;;;;;;7.55;1.60;;;12.70;1.00;;;;;;4982532;28;20042;-64
2023/08/08 05:04:08;;;;;;;9.85;1.80;;;13.60;1.00;;;;;;4981147;28;20093;-64
2023/08/08 05:06:35;;;;;;;6.60;1.90;;;;;;;;;;4983605;28;20078;-64
2023/08/08 05:09:00;;;;;;;7.25;2.22;;;13.40;99.90;;;;;;4988291;28;20138;-64
2023/08/08 05:11:26;;;;;;;7.15;2.10;;;13.20;99.90;;;;;;4989868;28;20117;-64
2023/08/08 05:13:51;;;;;;;9.30;2.30;;;13.60;99.90;;;;;;4987038;28;20440;-64
2023/08/08 05:16:18;;;;;;;8.23;1.77;;;14.10;99.90;;;;;;4989312;28;20092;-64
2023/08/08 05:18:46;;;;;;;6.93;2.00;;;14.30;99.90;;;;;;4986056;28;20061;-64
2023/08/08 05:21:12;;;;;;;10.98;2.10;;;13.60;99.90;;;;;;4986846;28;20077;-64
2023/08/08 05:23:38;;;;;;;7.07;2.08;;;13.20;99.90;;;;;;4982423;28;20081;-64
2023/08/08 05:26:03;;;;;;;6.97;1.75;;;13.80;99.90;;;;;;4983013;28;20057;-64
2023/08/08 05:28:29;;;;;;;9.02;2.17;;;13.00;99.90;;;;;;4983884;28;20042;-64
2023/08/08 05:30:56;;;;;;;5.95;1.77;;;13.40;99.90;;;;;;4981588;28;20042;-64
2023/08/08 05:33:22;;;;;;;7.05;1.80;;;14.00;99.90;;;;;;4981226;28;20042;-64
2023/08/08 05:35:48;;;;;;;8.30;1.73;;;13.60;99.90;;;;;;4977554;28;20046;-64
2023/08/08 05:38:13;;;;;;;8.32;2.40;;;13.90;99.90;;;;;;4976243;28;20051;-64
2023/08/08 05:40:39;;;;;;;7.30;1.80;;;14.00;99.90;;;;;;4982891;28;20081;-64
2023/08/08 05:43:05;;;;;;;8.95;1.45;;;13.20;99.90;;;;;;4980872;28;20034;-64
2023/08/08 05:45:31;;;;;;;5.90;1.60;;;14.10;99.90;;;;;;4982443;28;20030;-64
2023/08/08 05:47:57;;;;;;;5.63;1.70;;;13.20;99.90;;;;;;4979020;28;20153;-64
2023/08/08 05:50:23;;;;;;;6.50;1.85;;;13.80;99.90;;;;;;4983394;28;21418;-63
2023/08/08 05:52:49;;;;;;;5.03;1.40;;;14.10;99.90;;;;;;4979020;28;20042;-64
2023/08/08 05:55:15;;;;;;;5.47;1.48;;;13.20;99.90;;;;;;4981574;28;20030;-64
2023/08/08 05:57:40;;;;;;;6.75;1.77;;;14.30;99.90;;;;;;4981613;28;20058;-64
2023/08/08 06:00:08;;;;;;;16.77;2.17;;;13.90;99.90;;;;;;4983118;28;20035;-63
2023/08/08 06:02:34;;;;;;;11.30;1.90;;;;;;;;;;4978021;28;20114;-63
2023/08/08 06:05:00;;;;;;;11.27;2.08;;;13.90;99.90;;;;;;4981236;28;20042;-63
2023/08/08 06:07:25;;;;;;;6.97;2.15;;;14.00;99.90;;;;;;4978685;28;20250;-64
2023/08/08 06:09:51;;;;;;;6.10;1.48;;;14.20;99.90;;;;;;4975908;28;20054;-64
2023/08/08 06:12:17;;;;;;;8.68;1.50;;;13.90;99.90;;;;;;4968333;28;20070;-64
2023/08/08 06:14:43;;;;;;;6.35;1.52;;;14.10;99.90;;;;;;4982455;28;20057;-64
2023/08/08 06:17:08;;;;;;;7.20;1.70;;;13.80;99.90;;;;;;4979926;28;20038;-64
2023/08/08 06:19:34;;;;;;;8.55;1.95;;;13.80;99.90;;;;;;4982140;28;20100;-64
2023/08/08 06:22:00;;;;;;;9.27;1.75;;;14.30;90.30;;;;;;4980843;28;20484;-64
2023/08/08 06:24:25;;;;;;;5.60;1.48;;;14.20;92.30;;;;;;4976865;28;20436;-64
2023/08/08 06:26:51;;;;;;;9.82;1.73;;;14.20;91.90;;;;;;4979641;28;20057;-64
2023/08/08 06:29:17;;;;;;;7.18;1.50;;;15.20;85.20;;;;;;4978736;28;20045;-64
2023/08/08 06:31:42;;;;;;;6.38;1.67;;;14.50;47.90;;;;;;4984516;28;20042;-64
2023/08/08 06:34:09;;;;;;;8.57;2.50;;;;;;;;;;4984126;28;20049;-63
2023/08/08 06:36:34;;;;;;;7.60;1.65;;;15.30;1.00;;;;;;4985209;28;20038;-64
2023/08/08 06:39:00;;;;;;;5.90;1.45;;;14.90;12.90;;;;;;4978782;28;20060;-64
2023/08/08 06:41:26;;;;;;;5.63;1.45;;;14.80;1.00;;;;;;4986023;28;20054;-63
2023/08/08 06:43:51;;;;;;;7.95;1.40;;;16.10;99.90;;;;;;4981791;28;20089;-63
2023/08/08 06:46:20;;;;;;;5.50;1.52;;;15.30;99.90;;;;;;4984847;28;20101;-64
2023/08/08 06:48:46;;;;;;;8.30;2.10;;;15.30;99.90;;;;;;4979099;28;20046;-63
2023/08/08 06:51:12;;;;;;;7.35;1.88;;;15.70;99.90;;;;;;4982296;28;20073;-64
2023/08/08 06:53:38;;;;;;;5.80;1.60;;;15.30;99.90;;;;;;4984680;28;20137;-64
2023/08/08 06:56:04;;;;;;;6.57;1.42;;;15.60;99.90;;;;;;4982971;28;20037;-64
2023/08/08 06:58:30;;;;;;;6.30;1.55;;;15.80;99.90;;;;;;4979297;28;20094;-64
2023/08/08 07:00:55;;;;;;;6.50;1.60;;;16.00;99.90;;;;;;4983240;28;20046;-64
2023/08/08 07:03:21;;;;;;;8.57;1.70;;;15.60;99.90;;;;;;4981914;28;20500;-64
2023/08/08 07:05:51;;;;;;;5.03;1.52;;;16.30;99.90;;;;;;4985314;28;20121;-64
2023/08/08 07:08:17;;;;;;;9.82;2.50;;;;;;;;;;4984926;28;20039;-64
2023/08/08 07:10:43;;;;;;;10.60;1.98;;;16.40;99.90;;;;;;4983076;28;20069;-64
2023/08/08 07:13:09;;;;;;;5.88;1.73;;;16.60;99.90;;;;;;4981160;28;20055;-64
2023/08/08 07:15:34;;;;;;;4.72;1.35;;;15.90;99.90;;;;;;4986212;28;20480;-63
2023/08/08 07:18:00;;;;;;;6.95;2.28;;;16.00;99.90;;;;;;4981190;28;20034;-64
2023/08/08 07:20:26;;;;;;;7.13;1.58;;;16.70;99.90;;;;;;4979585;28;20034;-63
2023/08/08 07:22:51;;;;;;;9.73;2.50;;;16.40;99.90;;;;;;4981077;28;20153;-63
2023/08/08 07:25:17;;;;;;;6.88;1.85;;;16.50;99.90;;;;;;4981248;28;20030;-64
2023/08/08 07:27:43;;;;;;;6.60;1.80;;;;;;;;;;4982470;28;20493;-63
2023/08/08 07:30:09;;;;;;;8.52;1.90;;;16.30;99.90;;;;;;4981398;28;20440;-64
2023/08/08 07:32:35;;;;;;;8.95;1.60;;;16.80;99.90;;;;;;4982447;28;20050;-64
2023/08/08 07:35:02;;;;;;;8.90;1.65;;;16.50;99.90;;;;;;4983170;28;20052;-64
2023/08/08 07:37:28;;;;;;;7.22;1.58;;;16.20;99.90;;;;;;4986296;28;20042;-64
2023/08/08 07:39:54;;;;;;;9.77;2.08;;;16.50;99.90;;;;;;4976034;28;20034;-64
2023/08/08 07:42:19;;;;;;;7.70;1.90;;;16.30;99.90;;;;;;4987146;28;20042;-63
2023/08/08 07:44:45;;;;;;;10.98;3.58;;;16.60;99.90;;;;;;4983307;28;20076;-64
2023/08/08 07:47:10;;;;;;;9.00;2.33;;;16.60;99.90;;;;;;4986914;28;20092;-63
2023/08/08 07:49:36;;;;;;;5.78;1.33;;;17.00;99.90;;;;;;4982996;28;20035;-63
2023/08/08 07:52:02;;;;;;;4.80;1.40;;;17.60;99.90;;;;;;4985663;28;20039;-63
2023/08/08 07:54:28;;;;;;;11.55;1.65;;;16.40;99.90;;;;;;4986119;28;20042;-64
2023/08/08 07:56:53;;;;;;;8.55;1.50;;;17.10;99.90;;;;;;4980012;28;20034;-63
2023/08/08 07:59:19;;;;;;;8.88;1.38;;;16.50;99.90;;;;;;4983465;28;20081;-63
2023/08/08 08:01:44;;;;;;;5.80;1.40;;;17.10;99.90;;;;;;4986373;28;20038;-63
2023/08/08 08:04:10;;;;;;;8.88;2.30;;;16.50;99.90;;;;;;4979811;28;20047;-64
2023/08/08 08:06:35;;;;;;;7.90;1.73;;;17.20;99.90;;;;;;4984280;28;20101;-63
2023/08/08 08:09:01;;;;;;;8.75;1.60;;;16.30;99.90;;;;;;4984643;28;20042;-64
2023/08/08 08:11:27;;;;;;;4.78;1.10;;;17.10;99.90;;;;;;4982925;28;20041;-63
2023/08/08 08:13:53;;;;;;;4.45;1.50;;;16.70;99.90;;;;;;4982088;28;20042;-64
2023/08/08 08:16:18;;;;;;;9.18;2.00;;;17.10;99.90;;;;;;4979406;28;20424;-64
2023/08/08 08:18:44;;;;;;;4.53;1.70;;;17.40;99.90;;;;;;4980557;28;20408;-63
2023/08/08 08:21:10;;;;;;;5.15;1.48;;;16.80;1.00;;;;;;4981767;28;20046;-63
2023/08/08 08:23:37;;;;;;;8.10;1.83;;;16.20;82.40;;;;;;4984396;28;20103;-63
2023/08/08 08:26:03;;;;;;;6.30;2.85;;;16.80;90.20;;;;;;4979659;28;20519;-64
2023/08/08 08:28:29;;;;;;;6.15;1.67;;;17.00;65.20;;;;;;4981420;28;20030;-64
2023/08/08 08:30:54;;;;;;;5.72;1.42;;;17.10;99.90;;;;;;4981251;28;20035;-63
2023/08/08 08:33:20;;;;;;;7.57;1.58;;;16.40;99.90;;;;;;4979262;28;20031;-64
2023/08/08 08:35:46;;;;;;;4.78;1.52;;;15.50;99.90;;;;;;4983300;28;20038;-64
2023/08/08 08:38:12;;;;;;;7.43;1.70;;;15.00;99.90;;;;;;4981405;28;20034;-64
2023/08/08 08:40:39;;;;;;;7.80;2.08;;;15.00;1.00;;;;;;4983357;28;20038;-64
2023/08/08 08:43:06;;;;;;;6.53;1.67;;;15.20;1.00;;;;;;4983725;28;20038;-64
2023/08/08 08:45:34;;;;;;;10.90;2.10;;;14.90;1.00;;;;;;4985966;28;20059;-64
2023/08/08 08:48:00;;;;;;;8.70;1.58;;;15.10;1.00;;;;;;4979439;28;20035;-64
2023/08/08 08:50:32;;;;;;;5.97;1.55;;;15.40;1.00;;;;;;4983869;28;20038;-64
2023/08/08 08:52:59;;;;;;;5.07;1.17;;;15.80;99.90;;;;;;4980440;28;20453;-64
2023/08/08 08:55:26;;;;;;;8.23;1.88;;;15.20;99.90;;;;;;4985612;28;20038;-64
2023/08/08 08:57:52;;;;;;;5.75;1.38;;;15.40;99.90;;;;;;4979963;28;20047;-63
2023/08/08 09:00:18;;;;;;;3.83;1.27;;;15.70;99.90;;;;;;4984698;28;20042;-64
2023/08/08 09:02:44;;;;;;;8.60;1.67;;;16.40;99.90;;;;;;4982469;28;20038;-64
2023/08/08 09:05:12;;;;;;;6.97;1.65;;;16.70;99.90;;;;;;4980314;28;20045;-63
2023/08/08 09:07:38;;;;;;;4.70;1.10;;;16.60;99.90;;;;;;4979953;28;20038;-63
2023/08/08 09:10:04;;;;;;;6.57;2.17;;;16.60;99.90;;;;;;4981115;28;20101;-63
2023/08/08 09:12:31;;;;;;;10.40;1.70;;;16.30;99.90;;;;;;4978522;28;20117;-64
2023/08/08 09:14:57;;;;;;;9.57;1.95;;;16.90;19.40;;;;;;4983326;28;20042;-64
2023/08/08 09:17:27;;;;;;;9.07;1.65;;;16.60;77.40;;;;;;4979771;28;20034;-63
2023/08/08 09:19:58;;;;;;;4.40;1.48;;;17.00;59.00;;;;;;4980113;28;20130;-63
2023/08/08 09:22:24;;;;;;;6.15;1.38;;;17.00;96.80;;;;;;4975491;28;20047;-64
2023/08/08 09:24:50;;;;;;;6.55;1.30;;;17.10;39.60;;;;;;4983364;28;20073;-63
2023/08/08 09:27:16;;;;;;;9.48;1.83;;;16.50;1.00;;;;;;4983155;28;20073;-64
2023/08/08 09:29:42;;;;;;;7.18;1.88;;;17.30;7.80;;;;;;4986125;28;20046;-63
2023/08/08 09:32:08;;;;;;;6.63;1.70;;;17.20;4.60;;;;;;4985180;28;20567;-64
2023/08/08 09:34:35;;;;;;;7.05;1.88;;;17.00;1.00;;;;;;4980761;28;20062;-64
2023/08/08 09:37:01;;;;;;;6.63;1.70;;;16.80;47.10;;;;;;4977617;28;20038;-64
2023/08/08 09:39:28;;;;;;;9.02;1.80;;;16.60;93.10;;;;;;4981012;28;20042;-64
2023/08/08 09:41:55;;;;;;;7.57;1.70;;;16.40;99.90;;;;;;4983441;28;20617;-64
2023/08/08 09:44:29;;;;;;;9.35;1.63;;;16.40;99.90;;;;;;4981369;28;20137;-64
2023/08/08 09:46:55;;;;;;;7.85;1.70;;;17.00;99.90;;;;;;4983956;28;20046;-63
2023/08/08 09:49:22;;;;;;;7.93;2.08;;;16.70;99.90;;;;;;4976690;28;20499;-64
2023/08/08 09:51:49;;;;;;;7.05;1.73;;;16.80;99.90;;;;;;4981839;28;20046;-63
2023/08/08 09:54:16;;;;;;;6.07;1.63;;;17.20;99.90;;;;;;4979136;28;20050;-63
2023/08/08 09:56:42;;;;;;;8.27;1.88;;;17.00;73.10;;;;;;4980400;28;20527;-63
2023/08/08 09:59:09;;;;;;;7.40;2.00;;;17.00;25.80;;;;;;4974889;28;20113;-63
2023/08/08 10:01:38;;;;;;;12.90;1.70;;;17.10;23.50;;;;;;4978321;28;20042;-63
2023/08/08 10:04:06;;;;;;;7.35;1.58;;;16.90;1.00;;;;;;4984271;28;20050;-64
2023/08/08 10:06:32;;;;;;;9.13;2.00;;;17.10;1.00;;;;;;4984021;28;20049;-65
2023/08/08 10:08:59;;;;;;;6.60;1.73;;;17.50;1.00;;;;;;4985573;28;20120;-65
2023/08/08 10:11:26;;;;;;;9.27;2.25;;;18.00;99.90;;;;;;4979025;28;20070;-66
2023/08/08 10:13:54;;;;;;;11.48;2.42;;;17.30;99.90;;;;;;4983174;28;20034;-65
2023/08/08 10:16:21;;;;;;;5.20;1.48;;;17.40;99.90;;;;;;4978669;28;20035;-66
2023/08/08 10:18:58;;;;;;;4.20;1.20;;;17.20;99.90;;;;;;4984437;28;20085;-65
2023/08/08 10:21:24;;;;;;;7.32;1.45;;;16.80;99.90;;;;;;4982565;28;20030;-66
2023/08/08 10:24:10;;;;;;;6.38;1.58;;;17.60;99.90;;;;;;4984679;28;20042;-65
2023/08/08 10:27:01;;;;;;;5.82;1.77;;;17.50;99.90;;;;;;4980633;28;20499;-65
2023/08/08 10:29:29;;;;;;;5.80;1.60;;;17.50;99.90;;;;;;4977763;28;20527;-65
2023/08/08 10:32:06;;;;;;;7.25;1.50;;;16.90;99.90;;;;;;4981029;28;20082;-66
2023/08/08 10:34:43;;;;;;;8.25;1.70;;;17.10;99.90;;;;;;4982157;28;20035;-64
2023/08/08 10:37:12;;;;;;;5.93;1.33;;;17.20;99.90;;;;;;4979458;28;20110;-64
2023/08/08 10:39:50;;;;;;;7.40;1.95;;;17.40;75.70;;;;;;4986766;28;20034;-64
2023/08/08 10:42:19;;;;;;;5.20;1.50;;;17.50;99.90;;;;;;4981058;28;20121;-63
2023/08/08 10:44:54;;;;;;;4.25;1.23;;;17.70;47.80;;;;;;4988178;28;20042;-63
2023/08/08 10:47:31;;;;;;;6.40;1.45;;;17.40;99.90;;;;;;4983106;28;20038;-63
2023/08/08 10:50:11;;;;;;;5.53;1.40;;;17.40;99.90;;;;;;4984041;28;20444;-64
2023/08/08 10:52:55;;;;;;;4.15;1.40;;;17.30;88.10;;;;;;4984853;28;20173;-64
2023/08/08 10:55:27;;;;;;;5.18;1.38;;;17.40;1.00;;;;;;4985274;28;20034;-63
2023/08/08 10:57:54;;;;;;;6.00;1.25;;;16.80;1.00;;;;;;4980599;28;20043;-63
2023/08/08 11:00:22;;;;;;;7.65;1.83;;;17.80;94.20;;;;;;4981267;28;20591;-63
2023/08/08 11:02:48;;;;;;;5.47;1.45;;;17.30;15.10;;;;;;4983884;28;20042;-64
2023/08/08 11:05:14;;;;;;;4.28;1.20;;;17.70;1.00;;;;;;4985103;28;20049;-64
2023/08/08 11:07:42;;;;;;;5.90;1.27;;;17.60;1.00;;;;;;4981491;28;20038;-63
2023/08/08 11:10:08;;;;;;;8.18;1.83;;;17.80;1.00;;;;;;4982167;28;20045;-63
2023/08/08 11:12:34;;;;;;;4.32;1.20;;;18.10;1.00;;;;;;4979606;28;20074;-64
2023/08/08 11:14:59;;;;;;;4.85;1.33;;;18.30;99.90;;;;;;4982484;28;20125;-63
2023/08/08 11:17:25;;;;;;;3.60;1.10;;;;;;;;;;4982455;28;20026;-64
2023/08/08 11:19:51;;;;;;;6.38;1.55;;;17.30;99.90;;;;;;4983158;28;20034;-64
2023/08/08 11:22:20;;;;;;;8.13;1.48;;;17.70;1.00;;;;;;4978140;28;20042;-64
2023/08/08 11:24:46;;;;;;;10.77;1.50;;;;;;;;;;4981661;28;20046;-64
2023/08/08 11:27:12;;;;;;;5.50;1.88;;;17.70;1.00;;;;;;4980516;28;20049;-63
2023/08/08 11:29:38;;;;;;;5.43;1.40;;;18.10;1.00;;;;;;4979005;28;20046;-64
2023/08/08 11:32:04;;;;;;;5.68;1.60;;;18.40;1.00;;;;;;4973486;28;20035;-64
2023/08/08 11:34:32;;;;;;;6.18;1.60;;;17.60;1.00;;;;;;4974736;28;20046;-63
2023/08/08 11:36:59;;;;;;;6.35;1.60;;;17.80;1.00;;;;;;4979945;28;20404;-63
2023/08/08 11:39:26;;;;;;;7.13;1.30;;;17.60;99.90;;;;;;4976406;28;20446;-64
2023/08/08 11:41:52;;;;;;;4.38;1.35;;;18.00;99.90;;;;;;4976176;28;20525;-65
2023/08/08 11:44:19;;;;;;;9.18;1.95;;;17.90;99.90;;;;;;4979858;28;20125;-64
2023/08/08 11:46:48;;;;;;;7.55;1.60;;;17.30;99.90;;;;;;4979045;28;20037;-64
2023/08/08 11:49:17;;;;;;;6.13;1.65;;;17.10;99.90;;;;;;4979481;28;20573;-64
2023/08/08 11:51:45;;;;;;;6.15;1.55;;;18.10;99.90;;;;;;4986280;28;20547;-64
2023/08/08 11:54:11;;;;;;;6.22;1.48;;;17.70;99.90;;;;;;4977585;28;20100;-64
2023/08/08 11:56:37;;;;;;;7.15;1.50;;;17.60;43.70;;;;;;4988338;28;20057;-64
2023/08/08 11:59:04;;;;;;;8.30;1.67;;;17.50;99.90;;;;;;4980370;28;20034;-64
2023/08/08 12:01:31;;;;;;;7.85;1.50;;;17.90;82.30;;;;;;4989752;28;20183;-64
2023/08/08 12:03:57;;;;;;;8.65;1.77;;;18.50;21.40;;;;;;4978295;28;20085;-64
2023/08/08 12:06:28;;;;;;;6.90;1.67;;;17.70;37.30;;;;;;4984548;28;20070;-64
2023/08/08 12:08:54;;;;;;;6.18;1.50;;;18.10;66.20;;;;;;4975010;28;20042;-64
2023/08/08 12:11:21;;;;;;;6.03;1.50;;;18.50;1.00;;;;;;4981494;28;20530;-64
2023/08/08 12:13:46;;;;;;;9.23;1.42;;;18.80;1.00;;;;;;4981901;28;20046;-64
2023/08/08 12:16:14;;;;;;;7.13;1.50;;;19.30;1.00;;;;;;4983612;28;20121;-64
2023/08/08 12:18:40;;;;;;;4.57;1.45;;;19.20;99.90;;;;;;4980904;28;20595;-63
2023/08/08 12:21:09;;;;;;;8.48;1.77;;;18.20;99.90;;;;;;4982763;28;20121;-64
2023/08/08 12:23:36;;;;;;;9.93;2.83;;;18.40;1.00;;;;;;4986537;28;20144;-64
2023/08/08 12:26:06;;;;;;;8.85;2.17;;;19.00;1.00;;;;;;4977794;28;20445;-64
2023/08/08 12:28:32;;;;;;;6.93;1.60;;;18.00;36.70;;;;;;4982365;28;20584;-64
2023/08/08 12:30:58;;;;;;;5.18;1.70;;;18.10;1.00;;;;;;4980019;28;20125;-64
2023/08/08 12:33:24;;;;;;;7.43;1.50;;;18.30;99.90;;;;;;4979351;28;20038;-63
2023/08/08 12:35:49;;;;;;;18.55;2.88;;;18.40;1.00;;;;;;4982543;28;20046;-64
2023/08/08 12:38:15;;;;;;;6.72;1.33;;;18.60;1.00;;;;;;4979521;28;20117;-64
2023/08/08 12:40:41;;;;;;;6.22;1.35;;;19.70;99.90;;;;;;4982874;28;20172;-64
2023/08/08 12:43:06;;;;;;;4.57;1.50;;;19.90;9.00;;;;;;4984164;28;20373;-64
2023/08/08 12:45:32;;;;;;;5.07;1.33;;;20.30;99.90;;;;;;4981904;28;20041;-64
2023/08/08 12:47:58;;;;;;;7.80;1.80;;;20.40;99.90;;;;;;4978899;28;20042;-64
2023/08/08 12:50:24;;;;;;;7.03;1.83;;;20.10;99.90;;;;;;4981937;28;20440;-64